sensor_id;sensor_type;location;lat;lon;timestamp;P1;durP1;ratioP1;P2;durP2;ratioP2
16147;SDS011;8179;59.364;18.018;2023-02-27T00:01:15;93.03;;;89.83;;
16147;SDS011;8179;59.364;18.018;2023-02-27T00:03:42;94.67;;;91.17;;
16147;SDS011;8179;59.364;18.018;2023-02-27T00:06:10;101.80;;;98.10;;
16147;SDS011;8179;59.364;18.018;2023-02-27T00:08:37;99.73;;;96.53;;
16147;SDS011;8179;59.364;18.018;2023-02-27T00:11:03;107.33;;;103.57;;
16147;SDS011;8179;59.364;18.018;2023-02-27T00:13:30;107.90;;;104.20;;
16147;SDS011;8179;59.364;18.018;2023-02-27T00:15:58;117.67;;;113.77;;
16147;SDS011;8179;59.364;18.018;2023-02-27T00:18:25;114.23;;;110.47;;
16147;SDS011;8179;59.364;18.018;2023-02-27T00:20:51;166.87;;;161.53;;
16147;SDS011;8179;59.364;18.018;2023-02-27T00:23:18;124.73;;;120.83;;
16147;SDS011;8179;59.364;18.018;2023-02-27T00:25:45;128.50;;;124.27;;
16147;SDS011;8179;59.364;18.018;2023-02-27T00:28:12;140.97;;;136.13;;
16147;SDS011;8179;59.364;18.018;2023-02-27T00:30:39;135.67;;;130.70;;
16147;SDS011;8179;59.364;18.018;2023-02-27T00:33:07;133.00;;;128.57;;
16147;SDS011;8179;59.364;18.018;2023-02-27T00:35:33;136.87;;;132.23;;
16147;SDS011;8179;59.364;18.018;2023-02-27T00:38:00;134.47;;;130.17;;
16147;SDS011;8179;59.364;18.018;2023-02-27T00:40:26;133.97;;;129.33;;
16147;SDS011;8179;59.364;18.018;2023-02-27T00:42:53;135.33;;;130.50;;
16147;SDS011;8179;59.364;18.018;2023-02-27T00:45:20;126.60;;;121.63;;
16147;SDS011;8179;59.364;18.018;2023-02-27T00:47:46;131.67;;;126.80;;
16147;SDS011;8179;59.364;18.018;2023-02-27T00:50:14;139.37;;;134.83;;
16147;SDS011;8179;59.364;18.018;2023-02-27T00:52:41;128.70;;;124.37;;
16147;SDS011;8179;59.364;18.018;2023-02-27T00:55:08;103.73;;;100.30;;
16147;SDS011;8179;59.364;18.018;2023-02-27T00:57:34;123.60;;;119.57;;
16147;SDS011;8179;59.364;18.018;2023-02-27T01:00:03;116.63;;;112.60;;
16147;SDS011;8179;59.364;18.018;2023-02-27T01:02:30;105.13;;;101.63;;
16147;SDS011;8179;59.364;18.018;2023-02-27T01:04:57;109.87;;;106.13;;
16147;SDS011;8179;59.364;18.018;2023-02-27T01:07:25;101.30;;;97.67;;
16147;SDS011;8179;59.364;18.018;2023-02-27T01:09:51;125.10;;;120.70;;
16147;SDS011;8179;59.364;18.018;2023-02-27T01:12:18;127.30;;;122.53;;
16147;SDS011;8179;59.364;18.018;2023-02-27T01:14:44;128.17;;;123.67;;
16147;SDS011;8179;59.364;18.018;2023-02-27T01:17:11;134.87;;;130.20;;
16147;SDS011;8179;59.364;18.018;2023-02-27T01:19:37;127.07;;;122.93;;
16147;SDS011;8179;59.364;18.018;2023-02-27T01:22:04;109.00;;;105.03;;
16147;SDS011;8179;59.364;18.018;2023-02-27T01:24:32;114.33;;;110.57;;
16147;SDS011;8179;59.364;18.018;2023-02-27T01:26:59;149.87;;;145.20;;
16147;SDS011;8179;59.364;18.018;2023-02-27T01:29:25;116.03;;;111.83;;
16147;SDS011;8179;59.364;18.018;2023-02-27T01:31:52;110.57;;;106.83;;
16147;SDS011;8179;59.364;18.018;2023-02-27T01:34:19;104.00;;;100.23;;
16147;SDS011;8179;59.364;18.018;2023-02-27T01:36:45;104.77;;;101.13;;
16147;SDS011;8179;59.364;18.018;2023-02-27T01:39:12;103.57;;;100.10;;
16147;SDS011;8179;59.364;18.018;2023-02-27T01:41:40;104.37;;;100.63;;
16147;SDS011;8179;59.364;18.018;2023-02-27T01:44:07;123.00;;;119.07;;
16147;SDS011;8179;59.364;18.018;2023-02-27T01:46:34;109.07;;;105.43;;
16147;SDS011;8179;59.364;18.018;2023-02-27T01:49:02;111.30;;;107.70;;
16147;SDS011;8179;59.364;18.018;2023-02-27T01:51:30;106.40;;;102.80;;
16147;SDS011;8179;59.364;18.018;2023-02-27T01:53:57;101.17;;;97.67;;
16147;SDS011;8179;59.364;18.018;2023-02-27T01:56:25;104.77;;;101.30;;
16147;SDS011;8179;59.364;18.018;2023-02-27T01:58:55;103.60;;;100.23;;
16147;SDS011;8179;59.364;18.018;2023-02-27T02:01:23;104.87;;;101.30;;
16147;SDS011;8179;59.364;18.018;2023-02-27T02:03:51;104.17;;;100.50;;
16147;SDS011;8179;59.364;18.018;2023-02-27T02:06:20;105.40;;;101.57;;
16147;SDS011;8179;59.364;18.018;2023-02-27T02:08:47;98.30;;;94.83;;
16147;SDS011;8179;59.364;18.018;2023-02-27T02:11:14;99.73;;;96.17;;
16147;SDS011;8179;59.364;18.018;2023-02-27T02:13:41;100.10;;;96.67;;
16147;SDS011;8179;59.364;18.018;2023-02-27T02:16:17;96.70;;;93.30;;
16147;SDS011;8179;59.364;18.018;2023-02-27T02:18:48;123.97;;;119.93;;
16147;SDS011;8179;59.364;18.018;2023-02-27T02:24:14;91.03;;;87.93;;
16147;SDS011;8179;59.364;18.018;2023-02-27T02:26:46;101.10;;;97.40;;
16147;SDS011;8179;59.364;18.018;2023-02-27T02:32:08;99.67;;;96.00;;
16147;SDS011;8179;59.364;18.018;2023-02-27T02:37:39;105.63;;;102.10;;
16147;SDS011;8179;59.364;18.018;2023-02-27T02:40:17;112.07;;;108.27;;
16147;SDS011;8179;59.364;18.018;2023-02-27T02:42:46;98.53;;;95.33;;
16147;SDS011;8179;59.364;18.018;2023-02-27T02:45:16;98.33;;;95.10;;
16147;SDS011;8179;59.364;18.018;2023-02-27T02:47:51;100.33;;;96.93;;
16147;SDS011;8179;59.364;18.018;2023-02-27T02:50:23;105.13;;;101.47;;
16147;SDS011;8179;59.364;18.018;2023-02-27T02:52:53;105.33;;;101.40;;
16147;SDS011;8179;59.364;18.018;2023-02-27T02:55:28;104.73;;;101.20;;
16147;SDS011;8179;59.364;18.018;2023-02-27T02:57:57;108.97;;;104.93;;
16147;SDS011;8179;59.364;18.018;2023-02-27T03:00:27;99.57;;;96.07;;
16147;SDS011;8179;59.364;18.018;2023-02-27T03:02:56;104.00;;;100.37;;
16147;SDS011;8179;59.364;18.018;2023-02-27T03:05:25;106.53;;;102.50;;
16147;SDS011;8179;59.364;18.018;2023-02-27T03:07:55;101.53;;;97.83;;
16147;SDS011;8179;59.364;18.018;2023-02-27T03:10:25;131.03;;;126.97;;
16147;SDS011;8179;59.364;18.018;2023-02-27T03:12:55;108.70;;;105.07;;
16147;SDS011;8179;59.364;18.018;2023-02-27T03:15:24;111.70;;;108.00;;
16147;SDS011;8179;59.364;18.018;2023-02-27T03:17:54;129.70;;;125.57;;
16147;SDS011;8179;59.364;18.018;2023-02-27T03:20:23;107.70;;;104.27;;
16147;SDS011;8179;59.364;18.018;2023-02-27T03:22:51;107.40;;;103.70;;
16147;SDS011;8179;59.364;18.018;2023-02-27T03:25:20;105.37;;;101.60;;
16147;SDS011;8179;59.364;18.018;2023-02-27T03:27:48;107.00;;;102.57;;
16147;SDS011;8179;59.364;18.018;2023-02-27T03:30:18;100.03;;;96.63;;
16147;SDS011;8179;59.364;18.018;2023-02-27T03:32:51;100.03;;;96.43;;
16147;SDS011;8179;59.364;18.018;2023-02-27T03:35:20;130.07;;;125.63;;
16147;SDS011;8179;59.364;18.018;2023-02-27T03:37:49;108.30;;;104.73;;
16147;SDS011;8179;59.364;18.018;2023-02-27T03:40:23;101.30;;;98.00;;
16147;SDS011;8179;59.364;18.018;2023-02-27T03:42:52;113.57;;;109.80;;
16147;SDS011;8179;59.364;18.018;2023-02-27T03:45:22;111.83;;;107.90;;
16147;SDS011;8179;59.364;18.018;2023-02-27T03:47:50;107.43;;;103.97;;
16147;SDS011;8179;59.364;18.018;2023-02-27T03:50:17;130.07;;;125.40;;
16147;SDS011;8179;59.364;18.018;2023-02-27T03:52:43;104.23;;;100.60;;
16147;SDS011;8179;59.364;18.018;2023-02-27T03:55:12;103.53;;;100.17;;
16147;SDS011;8179;59.364;18.018;2023-02-27T03:57:40;107.23;;;102.40;;
16147;SDS011;8179;59.364;18.018;2023-02-27T04:00:08;110.27;;;106.67;;
16147;SDS011;8179;59.364;18.018;2023-02-27T04:02:37;103.37;;;99.97;;
16147;SDS011;8179;59.364;18.018;2023-02-27T04:05:04;108.57;;;104.63;;
16147;SDS011;8179;59.364;18.018;2023-02-27T04:07:33;170.67;;;165.27;;
16147;SDS011;8179;59.364;18.018;2023-02-27T04:10:07;109.83;;;106.13;;
16147;SDS011;8179;59.364;18.018;2023-02-27T04:12:38;116.10;;;112.20;;
16147;SDS011;8179;59.364;18.018;2023-02-27T04:15:11;101.53;;;98.27;;
16147;SDS011;8179;59.364;18.018;2023-02-27T04:17:41;116.60;;;112.50;;
16147;SDS011;8179;59.364;18.018;2023-02-27T04:20:19;109.00;;;105.50;;
16147;SDS011;8179;59.364;18.018;2023-02-27T04:22:50;107.40;;;103.87;;
16147;SDS011;8179;59.364;18.018;2023-02-27T04:25:22;115.17;;;111.30;;
16147;SDS011;8179;59.364;18.018;2023-02-27T04:27:50;109.13;;;104.97;;
16147;SDS011;8179;59.364;18.018;2023-02-27T04:30:21;159.33;;;154.43;;
16147;SDS011;8179;59.364;18.018;2023-02-27T04:32:52;122.70;;;118.57;;
16147;SDS011;8179;59.364;18.018;2023-02-27T04:35:21;108.30;;;104.40;;
16147;SDS011;8179;59.364;18.018;2023-02-27T04:37:49;120.53;;;116.63;;
16147;SDS011;8179;59.364;18.018;2023-02-27T04:40:19;135.03;;;130.73;;
16147;SDS011;8179;59.364;18.018;2023-02-27T04:42:48;155.37;;;150.57;;
16147;SDS011;8179;59.364;18.018;2023-02-27T04:45:17;134.70;;;130.03;;
16147;SDS011;8179;59.364;18.018;2023-02-27T04:47:46;124.83;;;120.80;;
16147;SDS011;8179;59.364;18.018;2023-02-27T04:50:16;178.83;;;173.23;;
16147;SDS011;8179;59.364;18.018;2023-02-27T04:52:45;114.07;;;109.97;;
16147;SDS011;8179;59.364;18.018;2023-02-27T04:55:13;117.93;;;114.03;;
16147;SDS011;8179;59.364;18.018;2023-02-27T04:57:45;165.57;;;160.47;;
16147;SDS011;8179;59.364;18.018;2023-02-27T05:00:13;146.93;;;141.77;;
16147;SDS011;8179;59.364;18.018;2023-02-27T05:02:41;127.20;;;123.27;;
16147;SDS011;8179;59.364;18.018;2023-02-27T05:05:10;197.73;;;191.43;;
16147;SDS011;8179;59.364;18.018;2023-02-27T05:07:40;193.77;;;187.77;;
16147;SDS011;8179;59.364;18.018;2023-02-27T05:10:09;120.93;;;116.90;;
16147;SDS011;8179;59.364;18.018;2023-02-27T05:12:39;187.67;;;181.07;;
16147;SDS011;8179;59.364;18.018;2023-02-27T05:15:08;185.63;;;179.90;;
16147;SDS011;8179;59.364;18.018;2023-02-27T05:17:37;137.90;;;133.30;;
16147;SDS011;8179;59.364;18.018;2023-02-27T05:20:06;166.40;;;161.10;;
16147;SDS011;8179;59.364;18.018;2023-02-27T05:22:35;268.53;;;260.30;;
16147;SDS011;8179;59.364;18.018;2023-02-27T05:25:08;129.50;;;125.43;;
16147;SDS011;8179;59.364;18.018;2023-02-27T05:27:37;120.63;;;116.87;;
16147;SDS011;8179;59.364;18.018;2023-02-27T05:30:07;218.73;;;211.80;;
16147;SDS011;8179;59.364;18.018;2023-02-27T05:32:38;147.13;;;142.30;;
16147;SDS011;8179;59.364;18.018;2023-02-27T05:35:09;164.50;;;159.37;;
16147;SDS011;8179;59.364;18.018;2023-02-27T05:37:38;166.20;;;161.13;;
16147;SDS011;8179;59.364;18.018;2023-02-27T05:40:10;296.10;;;287.03;;
16147;SDS011;8179;59.364;18.018;2023-02-27T05:42:39;204.00;;;197.77;;
16147;SDS011;8179;59.364;18.018;2023-02-27T05:45:08;260.13;;;252.10;;
16147;SDS011;8179;59.364;18.018;2023-02-27T05:47:36;189.43;;;183.50;;
16147;SDS011;8179;59.364;18.018;2023-02-27T05:50:05;212.97;;;206.37;;
16147;SDS011;8179;59.364;18.018;2023-02-27T05:52:34;226.70;;;219.37;;
16147;SDS011;8179;59.364;18.018;2023-02-27T05:55:02;182.23;;;176.53;;
16147;SDS011;8179;59.364;18.018;2023-02-27T05:57:34;152.13;;;147.37;;
16147;SDS011;8179;59.364;18.018;2023-02-27T06:00:05;227.77;;;220.70;;
16147;SDS011;8179;59.364;18.018;2023-02-27T06:02:33;198.73;;;192.57;;
16147;SDS011;8179;59.364;18.018;2023-02-27T06:05:00;204.93;;;198.53;;
16147;SDS011;8179;59.364;18.018;2023-02-27T06:07:29;150.07;;;145.23;;
16147;SDS011;8179;59.364;18.018;2023-02-27T06:09:56;153.97;;;149.13;;
16147;SDS011;8179;59.364;18.018;2023-02-27T06:12:25;175.67;;;170.03;;
16147;SDS011;8179;59.364;18.018;2023-02-27T06:14:53;196.57;;;190.43;;
16147;SDS011;8179;59.364;18.018;2023-02-27T06:17:22;327.17;;;316.53;;
16147;SDS011;8179;59.364;18.018;2023-02-27T06:19:49;168.60;;;163.40;;
16147;SDS011;8179;59.364;18.018;2023-02-27T06:22:15;171.50;;;166.17;;
16147;SDS011;8179;59.364;18.018;2023-02-27T06:24:44;248.27;;;240.20;;
16147;SDS011;8179;59.364;18.018;2023-02-27T06:27:10;238.53;;;231.07;;
16147;SDS011;8179;59.364;18.018;2023-02-27T06:29:37;148.80;;;144.17;;
16147;SDS011;8179;59.364;18.018;2023-02-27T06:32:06;178.27;;;172.70;;
16147;SDS011;8179;59.364;18.018;2023-02-27T06:34:33;266.67;;;258.70;;
16147;SDS011;8179;59.364;18.018;2023-02-27T06:36:59;216.17;;;209.50;;
16147;SDS011;8179;59.364;18.018;2023-02-27T06:39:26;188.50;;;182.47;;
16147;SDS011;8179;59.364;18.018;2023-02-27T06:41:52;219.50;;;212.53;;
16147;SDS011;8179;59.364;18.018;2023-02-27T06:44:19;126.57;;;122.17;;
16147;SDS011;8179;59.364;18.018;2023-02-27T06:46:46;229.90;;;223.00;;
16147;SDS011;8179;59.364;18.018;2023-02-27T06:49:14;295.53;;;286.47;;
16147;SDS011;8179;59.364;18.018;2023-02-27T06:51:40;178.83;;;173.17;;
16147;SDS011;8179;59.364;18.018;2023-02-27T06:54:08;204.97;;;198.63;;
16147;SDS011;8179;59.364;18.018;2023-02-27T06:56:34;204.63;;;198.33;;
16147;SDS011;8179;59.364;18.018;2023-02-27T06:59:01;165.73;;;160.33;;
16147;SDS011;8179;59.364;18.018;2023-02-27T07:01:27;184.80;;;178.77;;
16147;SDS011;8179;59.364;18.018;2023-02-27T07:03:54;221.73;;;215.00;;
16147;SDS011;8179;59.364;18.018;2023-02-27T07:06:22;183.97;;;178.27;;
16147;SDS011;8179;59.364;18.018;2023-02-27T07:08:51;217.43;;;210.83;;
16147;SDS011;8179;59.364;18.018;2023-02-27T07:11:17;170.70;;;165.50;;
16147;SDS011;8179;59.364;18.018;2023-02-27T07:13:44;258.87;;;250.90;;
16147;SDS011;8179;59.364;18.018;2023-02-27T07:16:18;206.13;;;199.83;;
16147;SDS011;8179;59.364;18.018;2023-02-27T07:18:45;300.10;;;290.60;;
16147;SDS011;8179;59.364;18.018;2023-02-27T07:21:11;274.33;;;265.67;;
16147;SDS011;8179;59.364;18.018;2023-02-27T07:23:40;217.80;;;211.30;;
16147;SDS011;8179;59.364;18.018;2023-02-27T07:26:07;179.90;;;174.30;;
16147;SDS011;8179;59.364;18.018;2023-02-27T07:28:33;168.30;;;163.10;;
16147;SDS011;8179;59.364;18.018;2023-02-27T07:31:00;123.20;;;119.23;;
16147;SDS011;8179;59.364;18.018;2023-02-27T07:33:27;159.27;;;154.37;;
16147;SDS011;8179;59.364;18.018;2023-02-27T07:35:54;221.23;;;214.37;;
16147;SDS011;8179;59.364;18.018;2023-02-27T07:38:20;163.10;;;158.00;;
16147;SDS011;8179;59.364;18.018;2023-02-27T07:40:49;141.40;;;137.07;;
16147;SDS011;8179;59.364;18.018;2023-02-27T07:43:16;190.57;;;184.53;;
16147;SDS011;8179;59.364;18.018;2023-02-27T07:45:43;221.30;;;214.47;;
16147;SDS011;8179;59.364;18.018;2023-02-27T07:48:10;205.47;;;198.97;;
16147;SDS011;8179;59.364;18.018;2023-02-27T07:50:36;198.27;;;192.33;;
16147;SDS011;8179;59.364;18.018;2023-02-27T07:53:03;218.57;;;211.97;;
16147;SDS011;8179;59.364;18.018;2023-02-27T07:55:32;191.27;;;185.43;;
16147;SDS011;8179;59.364;18.018;2023-02-27T07:58:00;185.80;;;179.97;;
16147;SDS011;8179;59.364;18.018;2023-02-27T08:00:26;236.20;;;228.97;;
16147;SDS011;8179;59.364;18.018;2023-02-27T08:02:53;296.53;;;287.13;;
16147;SDS011;8179;59.364;18.018;2023-02-27T08:05:20;150.27;;;145.53;;
16147;SDS011;8179;59.364;18.018;2023-02-27T08:07:47;209.40;;;203.03;;
16147;SDS011;8179;59.364;18.018;2023-02-27T08:10:13;255.17;;;247.17;;
16147;SDS011;8179;59.364;18.018;2023-02-27T08:12:40;175.37;;;170.13;;
16147;SDS011;8179;59.364;18.018;2023-02-27T08:15:09;156.80;;;152.00;;
16147;SDS011;8179;59.364;18.018;2023-02-27T08:17:36;196.57;;;190.43;;
16147;SDS011;8179;59.364;18.018;2023-02-27T08:20:02;148.67;;;144.20;;
16147;SDS011;8179;59.364;18.018;2023-02-27T08:22:31;145.53;;;141.13;;
16147;SDS011;8179;59.364;18.018;2023-02-27T08:24:58;207.57;;;201.27;;
16147;SDS011;8179;59.364;18.018;2023-02-27T08:27:25;159.17;;;154.30;;
16147;SDS011;8179;59.364;18.018;2023-02-27T08:29:51;135.73;;;131.37;;
16147;SDS011;8179;59.364;18.018;2023-02-27T08:32:20;187.13;;;181.37;;
16147;SDS011;8179;59.364;18.018;2023-02-27T08:34:46;128.93;;;124.93;;
16147;SDS011;8179;59.364;18.018;2023-02-27T08:37:13;131.53;;;127.43;;
16147;SDS011;8179;59.364;18.018;2023-02-27T08:39:40;161.23;;;156.37;;
16147;SDS011;8179;59.364;18.018;2023-02-27T08:42:06;172.63;;;167.40;;
16147;SDS011;8179;59.364;18.018;2023-02-27T08:44:33;160.60;;;155.70;;
16147;SDS011;8179;59.364;18.018;2023-02-27T08:46:59;97.37;;;94.17;;
16147;SDS011;8179;59.364;18.018;2023-02-27T08:49:27;141.77;;;137.43;;
16147;SDS011;8179;59.364;18.018;2023-02-27T08:51:54;113.00;;;109.43;;
16147;SDS011;8179;59.364;18.018;2023-02-27T08:54:20;129.90;;;125.97;;
16147;SDS011;8179;59.364;18.018;2023-02-27T08:56:47;159.80;;;154.70;;
16147;SDS011;8179;59.364;18.018;2023-02-27T08:59:14;171.77;;;166.40;;
16147;SDS011;8179;59.364;18.018;2023-02-27T09:01:41;134.40;;;130.27;;
16147;SDS011;8179;59.364;18.018;2023-02-27T09:04:08;112.47;;;108.97;;
16147;SDS011;8179;59.364;18.018;2023-02-27T09:06:36;137.83;;;133.63;;
16147;SDS011;8179;59.364;18.018;2023-02-27T09:09:06;122.80;;;118.70;;
16147;SDS011;8179;59.364;18.018;2023-02-27T09:11:32;142.57;;;138.10;;
16147;SDS011;8179;59.364;18.018;2023-02-27T09:13:59;121.50;;;117.77;;
16147;SDS011;8179;59.364;18.018;2023-02-27T09:16:26;114.17;;;110.57;;
16147;SDS011;8179;59.364;18.018;2023-02-27T09:18:52;136.97;;;132.80;;
16147;SDS011;8179;59.364;18.018;2023-02-27T09:21:19;111.23;;;107.70;;
16147;SDS011;8179;59.364;18.018;2023-02-27T09:23:48;144.23;;;139.77;;
16147;SDS011;8179;59.364;18.018;2023-02-27T09:26:14;98.63;;;95.53;;
16147;SDS011;8179;59.364;18.018;2023-02-27T09:28:41;66.23;;;64.20;;
16147;SDS011;8179;59.364;18.018;2023-02-27T09:31:08;133.83;;;129.43;;
16147;SDS011;8179;59.364;18.018;2023-02-27T09:33:35;131.87;;;127.80;;
16147;SDS011;8179;59.364;18.018;2023-02-27T09:36:02;150.47;;;145.93;;
16147;SDS011;8179;59.364;18.018;2023-02-27T09:38:29;112.53;;;108.90;;
16147;SDS011;8179;59.364;18.018;2023-02-27T09:40:57;108.77;;;105.13;;
16147;SDS011;8179;59.364;18.018;2023-02-27T09:43:27;148.77;;;144.10;;
16147;SDS011;8179;59.364;18.018;2023-02-27T09:45:55;83.07;;;80.27;;
16147;SDS011;8179;59.364;18.018;2023-02-27T09:48:26;98.40;;;95.30;;
16147;SDS011;8179;59.364;18.018;2023-02-27T09:50:54;113.03;;;109.47;;
16147;SDS011;8179;59.364;18.018;2023-02-27T09:53:21;143.47;;;138.77;;
16147;SDS011;8179;59.364;18.018;2023-02-27T09:55:51;66.37;;;64.23;;
16147;SDS011;8179;59.364;18.018;2023-02-27T10:01:07;80.80;;;78.30;;
16147;SDS011;8179;59.364;18.018;2023-02-27T10:03:40;80.33;;;77.73;;
16147;SDS011;8179;59.364;18.018;2023-02-27T10:06:17;87.87;;;85.00;;
16147;SDS011;8179;59.364;18.018;2023-02-27T10:08:47;90.80;;;87.63;;
16147;SDS011;8179;59.364;18.018;2023-02-27T10:11:19;46.33;;;44.77;;
16147;SDS011;8179;59.364;18.018;2023-02-27T10:13:52;89.97;;;87.10;;
16147;SDS011;8179;59.364;18.018;2023-02-27T10:16:22;65.83;;;63.73;;
16147;SDS011;8179;59.364;18.018;2023-02-27T10:18:51;95.43;;;92.47;;
16147;SDS011;8179;59.364;18.018;2023-02-27T10:21:19;109.30;;;105.67;;
16147;SDS011;8179;59.364;18.018;2023-02-27T10:23:49;79.30;;;76.37;;
16147;SDS011;8179;59.364;18.018;2023-02-27T10:26:18;86.73;;;83.83;;
16147;SDS011;8179;59.364;18.018;2023-02-27T10:28:45;80.97;;;78.27;;
16147;SDS011;8179;59.364;18.018;2023-02-27T10:31:14;81.23;;;78.53;;
16147;SDS011;8179;59.364;18.018;2023-02-27T10:33:43;95.63;;;92.53;;
16147;SDS011;8179;59.364;18.018;2023-02-27T10:36:12;75.07;;;72.73;;
16147;SDS011;8179;59.364;18.018;2023-02-27T10:38:39;69.13;;;66.90;;
16147;SDS011;8179;59.364;18.018;2023-02-27T10:41:09;59.63;;;57.80;;
16147;SDS011;8179;59.364;18.018;2023-02-27T10:43:36;74.10;;;71.13;;
16147;SDS011;8179;59.364;18.018;2023-02-27T10:46:05;76.13;;;73.63;;
16147;SDS011;8179;59.364;18.018;2023-02-27T10:48:32;87.77;;;85.07;;
16147;SDS011;8179;59.364;18.018;2023-02-27T10:53:41;82.13;;;79.43;;
16147;SDS011;8179;59.364;18.018;2023-02-27T10:56:11;50.60;;;49.00;;
16147;SDS011;8179;59.364;18.018;2023-02-27T10:58:39;81.30;;;78.47;;
16147;SDS011;8179;59.364;18.018;2023-02-27T11:01:07;75.57;;;72.90;;
16147;SDS011;8179;59.364;18.018;2023-02-27T11:03:34;63.67;;;61.67;;
16147;SDS011;8179;59.364;18.018;2023-02-27T11:06:03;40.07;;;38.70;;
16147;SDS011;8179;59.364;18.018;2023-02-27T11:08:31;79.13;;;76.37;;
16147;SDS011;8179;59.364;18.018;2023-02-27T11:11:00;73.60;;;71.30;;
16147;SDS011;8179;59.364;18.018;2023-02-27T11:13:28;66.53;;;64.40;;
16147;SDS011;8179;59.364;18.018;2023-02-27T11:16:03;69.83;;;67.60;;
16147;SDS011;8179;59.364;18.018;2023-02-27T11:18:30;68.83;;;66.60;;
16147;SDS011;8179;59.364;18.018;2023-02-27T11:21:08;103.43;;;100.00;;
16147;SDS011;8179;59.364;18.018;2023-02-27T11:23:34;88.30;;;85.50;;
16147;SDS011;8179;59.364;18.018;2023-02-27T11:26:09;97.50;;;94.03;;
16147;SDS011;8179;59.364;18.018;2023-02-27T11:28:36;89.90;;;87.07;;
16147;SDS011;8179;59.364;18.018;2023-02-27T11:31:03;65.17;;;63.10;;
16147;SDS011;8179;59.364;18.018;2023-02-27T11:33:32;68.20;;;65.90;;
16147;SDS011;8179;59.364;18.018;2023-02-27T11:36:01;69.77;;;67.27;;
16147;SDS011;8179;59.364;18.018;2023-02-27T11:38:28;74.73;;;72.40;;
16147;SDS011;8179;59.364;18.018;2023-02-27T11:40:55;75.37;;;72.37;;
16147;SDS011;8179;59.364;18.018;2023-02-27T11:43:24;84.03;;;81.23;;
16147;SDS011;8179;59.364;18.018;2023-02-27T11:45:53;79.00;;;76.57;;
16147;SDS011;8179;59.364;18.018;2023-02-27T11:48:21;51.33;;;49.67;;
16147;SDS011;8179;59.364;18.018;2023-02-27T11:50:54;85.77;;;83.07;;
16147;SDS011;8179;59.364;18.018;2023-02-27T11:53:27;75.47;;;72.57;;
16147;SDS011;8179;59.364;18.018;2023-02-27T11:55:57;66.03;;;63.77;;
16147;SDS011;8179;59.364;18.018;2023-02-27T11:58:27;66.87;;;64.30;;
16147;SDS011;8179;59.364;18.018;2023-02-27T12:00:56;64.80;;;62.73;;
16147;SDS011;8179;59.364;18.018;2023-02-27T12:03:26;66.00;;;63.73;;
16147;SDS011;8179;59.364;18.018;2023-02-27T12:05:57;72.73;;;70.23;;
16147;SDS011;8179;59.364;18.018;2023-02-27T12:08:29;68.27;;;65.97;;
16147;SDS011;8179;59.364;18.018;2023-02-27T12:10:57;74.60;;;72.17;;
16147;SDS011;8179;59.364;18.018;2023-02-27T12:13:29;63.67;;;61.60;;
16147;SDS011;8179;59.364;18.018;2023-02-27T12:15:57;64.43;;;62.13;;
16147;SDS011;8179;59.364;18.018;2023-02-27T12:18:27;57.73;;;55.73;;
16147;SDS011;8179;59.364;18.018;2023-02-27T12:20:56;64.13;;;61.73;;
16147;SDS011;8179;59.364;18.018;2023-02-27T12:23:25;55.67;;;53.70;;
16147;SDS011;8179;59.364;18.018;2023-02-27T12:25:55;63.63;;;61.57;;
16147;SDS011;8179;59.364;18.018;2023-02-27T12:28:25;108.17;;;104.40;;
16147;SDS011;8179;59.364;18.018;2023-02-27T12:30:59;56.87;;;54.67;;
16147;SDS011;8179;59.364;18.018;2023-02-27T12:33:31;59.40;;;57.17;;
16147;SDS011;8179;59.364;18.018;2023-02-27T12:36:01;63.97;;;61.93;;
16147;SDS011;8179;59.364;18.018;2023-02-27T12:38:28;62.40;;;60.27;;
16147;SDS011;8179;59.364;18.018;2023-02-27T12:41:09;60.47;;;58.47;;
16147;SDS011;8179;59.364;18.018;2023-02-27T12:43:42;51.87;;;50.17;;
16147;SDS011;8179;59.364;18.018;2023-02-27T12:46:23;66.63;;;64.53;;
16147;SDS011;8179;59.364;18.018;2023-02-27T12:49:00;65.93;;;63.83;;
16147;SDS011;8179;59.364;18.018;2023-02-27T12:51:34;56.43;;;54.53;;
16147;SDS011;8179;59.364;18.018;2023-02-27T12:54:09;59.67;;;57.70;;
16147;SDS011;8179;59.364;18.018;2023-02-27T12:56:44;53.10;;;51.13;;
16147;SDS011;8179;59.364;18.018;2023-02-27T12:59:17;56.47;;;54.53;;
16147;SDS011;8179;59.364;18.018;2023-02-27T13:01:52;60.87;;;58.83;;
16147;SDS011;8179;59.364;18.018;2023-02-27T13:04:22;60.37;;;58.17;;
16147;SDS011;8179;59.364;18.018;2023-02-27T13:06:51;53.00;;;51.37;;
16147;SDS011;8179;59.364;18.018;2023-02-27T13:09:19;65.13;;;63.07;;
16147;SDS011;8179;59.364;18.018;2023-02-27T13:11:57;59.20;;;56.97;;
16147;SDS011;8179;59.364;18.018;2023-02-27T13:14:31;57.40;;;55.17;;
16147;SDS011;8179;59.364;18.018;2023-02-27T13:17:03;57.40;;;55.33;;
16147;SDS011;8179;59.364;18.018;2023-02-27T13:19:35;47.83;;;46.33;;
16147;SDS011;8179;59.364;18.018;2023-02-27T13:22:05;55.53;;;53.73;;
16147;SDS011;8179;59.364;18.018;2023-02-27T13:24:33;54.07;;;52.33;;
16147;SDS011;8179;59.364;18.018;2023-02-27T13:27:06;59.37;;;57.37;;
16147;SDS011;8179;59.364;18.018;2023-02-27T13:29:34;48.33;;;46.83;;
16147;SDS011;8179;59.364;18.018;2023-02-27T13:32:05;49.47;;;47.50;;
16147;SDS011;8179;59.364;18.018;2023-02-27T13:34:38;46.93;;;45.43;;
16147;SDS011;8179;59.364;18.018;2023-02-27T13:37:07;48.70;;;47.00;;
16147;SDS011;8179;59.364;18.018;2023-02-27T13:39:37;48.17;;;46.47;;
16147;SDS011;8179;59.364;18.018;2023-02-27T13:42:09;48.90;;;47.30;;
16147;SDS011;8179;59.364;18.018;2023-02-27T13:44:57;49.27;;;47.53;;
16147;SDS011;8179;59.364;18.018;2023-02-27T13:47:42;59.60;;;57.70;;
16147;SDS011;8179;59.364;18.018;2023-02-27T13:53:00;48.37;;;46.87;;
16147;SDS011;8179;59.364;18.018;2023-02-27T13:55:33;42.17;;;40.77;;
16147;SDS011;8179;59.364;18.018;2023-02-27T13:58:01;47.27;;;45.77;;
16147;SDS011;8179;59.364;18.018;2023-02-27T14:00:29;56.63;;;54.60;;
16147;SDS011;8179;59.364;18.018;2023-02-27T14:03:05;51.27;;;49.67;;
16147;SDS011;8179;59.364;18.018;2023-02-27T14:05:35;48.80;;;47.27;;
16147;SDS011;8179;59.364;18.018;2023-02-27T14:08:06;47.83;;;46.33;;
16147;SDS011;8179;59.364;18.018;2023-02-27T14:10:34;41.33;;;40.03;;
16147;SDS011;8179;59.364;18.018;2023-02-27T14:13:02;48.60;;;47.00;;
16147;SDS011;8179;59.364;18.018;2023-02-27T14:21:01;51.33;;;49.73;;
16147;SDS011;8179;59.364;18.018;2023-02-27T14:23:28;50.43;;;48.83;;
16147;SDS011;8179;59.364;18.018;2023-02-27T14:25:56;52.90;;;51.20;;
16147;SDS011;8179;59.364;18.018;2023-02-27T14:28:24;56.37;;;54.50;;
16147;SDS011;8179;59.364;18.018;2023-02-27T14:30:53;53.13;;;51.40;;
16147;SDS011;8179;59.364;18.018;2023-02-27T14:33:22;116.33;;;112.70;;
16147;SDS011;8179;59.364;18.018;2023-02-27T14:35:54;48.93;;;47.33;;
16147;SDS011;8179;59.364;18.018;2023-02-27T14:38:23;51.93;;;50.27;;